createdAt,value
2019-03-30T00:02:16.749Z,64.78
2019-03-30T00:04:44.643Z,64.94
2019-03-30T00:07:14.118Z,65.27
2019-03-30T00:09:43.228Z,65.27
2019-03-30T00:12:11.071Z,65.01
2019-03-30T00:14:38.651Z,65.01
2019-03-30T00:17:06.218Z,65.36
2019-03-30T00:19:35.066Z,65.38
2019-03-30T00:22:02.959Z,65.76
2019-03-30T00:24:30.571Z,65.76
2019-03-30T00:27:03.166Z,65.27
2019-03-30T00:29:34.684Z,65.41
2019-03-30T00:32:02.289Z,65.40
2019-03-30T00:34:38.477Z,65.40
2019-03-30T00:37:06.042Z,65.32
2019-03-30T00:39:33.634Z,65.36
2019-03-30T00:42:01.543Z,65.11
2019-03-30T00:44:32.161Z,65.11
2019-03-30T00:46:59.619Z,65.43
2019-03-30T00:49:27.484Z,65.60
2019-03-30T00:51:55.061Z,65.60
2019-03-30T00:54:22.651Z,65.64
2019-03-30T00:56:50.514Z,65.64
2019-03-30T00:59:18.139Z,65.37
2019-03-30T01:01:48.604Z,65.88
2019-03-30T01:04:16.225Z,65.88
2019-03-30T01:06:44.082Z,65.52
2019-03-30T01:09:11.795Z,65.72
2019-03-30T01:11:39.428Z,65.41
2019-03-30T01:14:07.286Z,65.41
2019-03-30T01:16:34.838Z,65.80
2019-03-30T01:19:02.398Z,65.86
2019-03-30T01:21:30.262Z,65.79
2019-03-30T01:23:58.021Z,65.79
2019-03-30T01:26:25.599Z,65.75
2019-03-30T01:28:53.065Z,66.14
2019-03-30T01:31:20.613Z,66.15
2019-03-30T01:33:49.379Z,65.67
2019-03-30T01:36:17.003Z,66.15
2019-03-30T01:38:44.589Z,65.49
2019-03-30T01:41:12.217Z,65.49
2019-03-30T01:43:40.006Z,65.58
2019-03-30T01:46:07.624Z,65.75
2019-03-30T01:48:35.613Z,65.86
2019-03-30T01:51:03.439Z,65.62
2019-03-30T01:53:30.962Z,65.62
2019-03-30T01:55:58.506Z,65.66
2019-03-30T01:58:26.323Z,65.71
2019-03-30T02:00:53.832Z,65.40
2019-03-30T02:03:21.344Z,65.80
2019-03-30T02:05:48.902Z,65.80
2019-03-30T02:08:17.185Z,66.08
2019-03-30T02:10:44.737Z,66.16
2019-03-30T02:13:12.318Z,66.21
2019-03-30T02:15:39.871Z,65.99
2019-03-30T02:18:10.737Z,65.99
2019-03-30T02:20:38.300Z,66.09
2019-03-30T02:23:05.867Z,66.09
2019-03-30T02:25:33.491Z,66.14
2019-03-30T02:28:06.928Z,66.37
2019-03-30T02:30:33.597Z,66.34
2019-03-30T02:33:01.179Z,66.18
2019-03-30T02:35:28.788Z,65.76
2019-03-30T02:37:56.586Z,65.88
2019-03-30T02:40:24.207Z,66.36
2019-03-30T02:42:51.762Z,66.33
2019-03-30T02:45:19.376Z,66.33
2019-03-30T02:47:47.187Z,65.78
2019-03-30T02:50:14.702Z,65.78
2019-03-30T02:52:42.171Z,66.40
2019-03-30T02:55:12.557Z,66.57
2019-03-30T02:57:39.227Z,66.57
2019-03-30T03:00:09.240Z,66.62
2019-03-30T03:02:36.839Z,66.57
2019-03-30T03:05:04.477Z,66.53
2019-03-30T03:07:32.297Z,66.53
2019-03-30T03:09:59.912Z,66.50
2019-03-30T03:12:27.453Z,66.50
2019-03-30T03:14:55.047Z,66.99
2019-03-30T03:17:22.877Z,66.99
2019-03-30T03:19:50.514Z,66.41
2019-03-30T03:22:18.036Z,66.41
2019-03-30T03:24:45.643Z,66.29
2019-03-30T03:27:13.444Z,66.29
2019-03-30T03:29:43.747Z,66.95
2019-03-30T03:32:10.218Z,66.95
2019-03-30T03:34:38.004Z,66.69
2019-03-30T03:37:05.474Z,67.00
2019-03-30T03:39:33.072Z,67.00
2019-03-30T03:42:00.595Z,66.66
2019-03-30T03:44:28.467Z,66.66
2019-03-30T03:46:56.025Z,66.81
2019-03-30T03:49:23.611Z,66.83
2019-03-30T03:51:51.164Z,66.85
2019-03-30T03:54:19.111Z,66.79
2019-03-30T03:56:46.673Z,66.77
2019-03-30T03:59:14.469Z,66.75
2019-03-30T04:01:41.989Z,66.77
2019-03-30T04:04:09.484Z,66.54
2019-03-30T04:06:37.054Z,67.21
2019-03-30T04:09:04.880Z,67.17
2019-03-30T04:11:32.408Z,66.58
2019-03-30T04:14:00.003Z,67.38
2019-03-30T04:16:27.550Z,67.38
2019-03-30T04:18:55.412Z,67.23
2019-03-30T04:21:22.940Z,67.23
2019-03-30T04:23:54.090Z,67.42
2019-03-30T04:26:19.617Z,67.55
2019-03-30T04:28:47.506Z,67.28
2019-03-30T04:31:15.065Z,67.28
2019-03-30T04:33:42.657Z,67.29
2019-03-30T04:36:10.169Z,67.33
2019-03-30T04:38:37.969Z,67.36
2019-03-30T04:41:05.520Z,67.10
2019-03-30T04:43:32.995Z,67.10
2019-03-30T04:46:00.871Z,67.47
2019-03-30T04:48:29.618Z,67.43
2019-03-30T04:50:57.300Z,67.43
2019-03-30T04:53:25.160Z,67.16
2019-03-30T04:55:54.941Z,67.28
2019-03-30T04:58:22.532Z,67.86
2019-03-30T05:00:50.066Z,67.47
2019-03-30T05:03:17.847Z,67.47
2019-03-30T05:05:45.289Z,67.38
2019-03-30T05:08:13.218Z,68.11
2019-03-30T05:10:41.078Z,68.11
2019-03-30T05:13:08.611Z,67.49
2019-03-30T05:15:36.143Z,67.70
2019-03-30T05:18:03.758Z,67.41
2019-03-30T05:20:31.575Z,67.41
2019-03-30T05:22:59.168Z,67.52
2019-03-30T05:25:27.099Z,67.50
2019-03-30T05:27:54.640Z,67.50
2019-03-30T05:30:22.459Z,67.55
2019-03-30T05:33:04.600Z,67.49
2019-03-30T05:35:19.289Z,67.01
2019-03-30T05:37:47.095Z,67.01
2019-03-30T05:40:14.691Z,67.33
2019-03-30T05:42:42.252Z,67.27
2019-03-30T05:45:12.590Z,67.21
2019-03-30T05:47:41.869Z,67.46
2019-03-30T05:50:12.680Z,66.77
2019-03-30T05:52:40.214Z,66.50
2019-03-30T05:55:07.662Z,66.50
2019-03-30T05:57:35.514Z,66.12
2019-03-30T06:00:03.043Z,66.12
2019-03-30T06:02:30.565Z,66.39
2019-03-30T06:04:58.706Z,65.78
2019-03-30T06:07:26.448Z,65.78
2019-03-30T06:09:53.911Z,65.89
2019-03-30T06:12:21.653Z,65.76
2019-03-30T06:14:49.582Z,65.56
2019-03-30T06:17:17.186Z,64.87
2019-03-30T06:19:44.742Z,64.87
2019-03-30T06:22:12.572Z,64.44
2019-03-30T06:24:40.144Z,64.44
2019-03-30T06:27:07.668Z,64.85
2019-03-30T06:29:35.508Z,64.02
2019-03-30T06:32:03.065Z,64.02
2019-03-30T06:34:30.542Z,64.00
2019-03-30T06:36:58.359Z,64.00
2019-03-30T06:39:25.955Z,63.87
2019-03-30T06:41:53.573Z,63.42
2019-03-30T06:44:21.403Z,63.42
2019-03-30T06:46:48.873Z,63.46
2019-03-30T06:49:16.466Z,63.30
2019-03-30T06:51:44.275Z,63.07
2019-03-30T06:54:16.917Z,62.75
2019-03-30T06:56:53.727Z,62.53
2019-03-30T06:59:21.256Z,61.64
2019-03-30T07:01:48.807Z,61.73
2019-03-30T07:04:16.326Z,61.73
2019-03-30T07:06:46.758Z,61.70
2019-03-30T07:09:14.322Z,61.66
2019-03-30T07:11:41.847Z,61.66
2019-03-30T07:14:09.695Z,61.09
2019-03-30T07:16:37.169Z,61.09
2019-03-30T07:19:05.106Z,60.66
2019-03-30T07:21:32.913Z,59.95
2019-03-30T07:24:00.816Z,59.69
2019-03-30T07:26:28.376Z,59.69
2019-03-30T07:28:56.179Z,59.71
2019-03-30T07:31:23.704Z,58.94
2019-03-30T07:33:51.204Z,58.94
2019-03-30T07:36:22.574Z,59.04
2019-03-30T07:38:50.195Z,58.77
2019-03-30T07:41:20.506Z,58.23
2019-03-30T07:43:48.321Z,57.56
2019-03-30T07:46:15.841Z,57.56
2019-03-30T07:48:43.410Z,58.04
2019-03-30T07:51:11.227Z,57.68
2019-03-30T07:53:44.777Z,57.68
2019-03-30T07:56:09.046Z,57.16
2019-03-30T07:58:36.934Z,56.58
2019-03-30T08:01:04.409Z,56.58
2019-03-30T08:03:32.019Z,56.32
2019-03-30T08:06:10.068Z,55.71
2019-03-30T08:08:32.569Z,55.71
2019-03-30T08:11:05.132Z,54.82
2019-03-30T08:13:32.734Z,54.82
2019-03-30T08:16:00.616Z,54.35
2019-03-30T08:18:28.703Z,53.59
2019-03-30T08:20:56.155Z,52.91
2019-03-30T08:23:23.683Z,52.90
2019-03-30T08:25:54.177Z,52.90
2019-03-30T08:28:21.723Z,52.57
2019-03-30T08:30:49.330Z,52.31
2019-03-30T08:33:16.868Z,52.16
2019-03-30T08:35:44.365Z,51.37
2019-03-30T08:38:12.122Z,51.37
2019-03-30T08:40:39.703Z,51.37
2019-03-30T08:43:07.158Z,51.22
2019-03-30T08:45:36.010Z,50.92
2019-03-30T08:48:03.547Z,50.92
2019-03-30T08:50:32.185Z,50.57
2019-03-30T08:53:00.045Z,50.41
2019-03-30T08:55:27.596Z,50.10
2019-03-30T08:57:55.135Z,49.66
2019-03-30T09:00:23.030Z,49.17
2019-03-30T09:02:50.943Z,48.67
2019-03-30T09:05:18.513Z,47.78
2019-03-30T09:07:46.272Z,47.78
2019-03-30T09:10:13.822Z,47.46
2019-03-30T09:12:41.385Z,47.46
2019-03-30T09:15:11.840Z,46.79
2019-03-30T09:17:40.522Z,46.45
2019-03-30T09:20:08.045Z,46.01
2019-03-30T09:22:36.338Z,45.42
2019-03-30T09:25:03.945Z,45.42
2019-03-30T09:27:31.432Z,44.25
2019-03-30T09:30:09.037Z,44.02
2019-03-30T09:32:34.106Z,43.46
2019-03-30T09:35:03.419Z,42.97
2019-03-30T09:37:31.184Z,42.45
2019-03-30T09:39:58.709Z,42.24
2019-03-30T09:42:26.220Z,41.84
2019-03-30T09:44:53.994Z,42.33
2019-03-30T09:47:21.497Z,41.55
2019-03-30T09:49:49.065Z,41.55
2019-03-30T09:52:16.926Z,41.41
2019-03-30T09:54:44.523Z,40.74
2019-03-30T09:57:13.078Z,39.39
2019-03-30T09:59:40.923Z,39.39
2019-03-30T10:02:08.406Z,38.31
2019-03-30T10:04:36.498Z,37.98
2019-03-30T10:07:07.344Z,37.17
2019-03-30T10:09:35.252Z,37.01
2019-03-30T10:12:02.728Z,36.88
2019-03-30T10:14:31.548Z,36.50
2019-03-30T10:16:59.430Z,35.81
2019-03-30T10:19:29.980Z,34.84
2019-03-30T10:21:57.805Z,34.47
2019-03-30T10:24:38.084Z,34.44
2019-03-30T10:26:56.736Z,33.89
2019-03-30T10:29:24.608Z,32.96
2019-03-30T10:31:52.134Z,33.08
2019-03-30T10:34:19.573Z,32.68
2019-03-30T10:36:47.386Z,32.52
2019-03-30T10:39:17.905Z,32.27
2019-03-30T10:41:45.508Z,31.73
2019-03-30T10:44:13.227Z,32.21
2019-03-30T10:46:40.726Z,32.40
2019-03-30T10:49:11.265Z,31.97
2019-03-30T10:51:41.776Z,31.57
2019-03-30T10:54:09.315Z,31.69
2019-03-30T10:56:37.936Z,31.69
2019-03-30T10:59:05.663Z,31.31
2019-03-30T11:01:33.221Z,30.96
2019-03-30T11:04:00.830Z,30.35
2019-03-30T11:06:28.653Z,30.54
2019-03-30T11:08:58.997Z,29.59
2019-03-30T11:11:26.588Z,29.59
2019-03-30T11:13:54.349Z,30.30
2019-03-30T11:16:21.935Z,30.29
2019-03-30T11:18:50.400Z,30.08
2019-03-30T11:21:18.243Z,29.76
2019-03-30T11:23:45.853Z,29.26
2019-03-30T11:26:13.458Z,29.14
2019-03-30T11:28:41.346Z,28.90
2019-03-30T11:31:09.237Z,28.88
2019-03-30T11:33:40.231Z,28.71
2019-03-30T11:36:08.030Z,28.72
2019-03-30T11:38:35.649Z,28.71
2019-03-30T11:41:03.472Z,28.93
2019-03-30T11:43:34.183Z,29.30
2019-03-30T11:46:01.792Z,29.30
2019-03-30T11:48:29.342Z,28.96
2019-03-30T11:51:00.100Z,28.65
2019-03-30T11:53:29.614Z,28.19
2019-03-30T11:55:57.134Z,27.94
2019-03-30T11:58:26.542Z,27.81
2019-03-30T12:00:54.150Z,27.53
2019-03-30T12:03:21.679Z,27.80
2019-03-30T12:05:50.495Z,27.77
2019-03-30T12:08:18.126Z,27.60
2019-03-30T12:10:47.380Z,27.58
2019-03-30T12:13:15.271Z,27.40
2019-03-30T12:15:45.224Z,27.86
2019-03-30T12:18:14.844Z,27.51
2019-03-30T12:20:42.710Z,27.73
2019-03-30T12:23:11.894Z,27.73
2019-03-30T12:25:39.476Z,26.95
2019-03-30T12:28:07.277Z,27.29
2019-03-30T12:30:34.819Z,27.06
2019-03-30T12:33:02.375Z,27.00
2019-03-30T12:35:29.897Z,27.32
2019-03-30T12:37:59.128Z,27.50
2019-03-30T12:40:27.115Z,27.27
2019-03-30T12:42:54.591Z,26.90
2019-03-30T12:45:22.244Z,26.84
2019-03-30T12:47:52.149Z,26.71
2019-03-30T12:50:19.773Z,26.58
2019-03-30T12:52:47.326Z,26.63
2019-03-30T12:55:15.196Z,26.63
2019-03-30T12:57:42.678Z,26.91
2019-03-30T13:00:10.305Z,28.21
2019-03-30T13:02:39.301Z,29.31
2019-03-30T13:05:07.535Z,30.69
2019-03-30T13:07:35.251Z,31.37
2019-03-30T13:10:03.089Z,31.89
2019-03-30T13:12:30.676Z,32.53
2019-03-30T13:15:00.103Z,33.01
2019-03-30T13:17:29.138Z,33.39
2019-03-30T13:19:56.796Z,33.72
2019-03-30T13:22:24.323Z,34.04
2019-03-30T13:24:55.080Z,34.40
2019-03-30T13:27:22.675Z,34.46
2019-03-30T13:29:50.169Z,34.44
2019-03-30T13:32:18.008Z,34.38
2019-03-30T13:34:45.597Z,34.14
2019-03-30T13:37:13.077Z,33.82
2019-03-30T13:39:40.989Z,33.46
2019-03-30T13:42:08.533Z,33.46
2019-03-30T13:44:37.491Z,33.50
2019-03-30T13:47:08.053Z,33.71
2019-03-30T13:49:35.664Z,33.77
2019-03-30T13:52:03.278Z,33.86
2019-03-30T13:54:31.086Z,33.98
2019-03-30T13:56:58.776Z,34.13
2019-03-30T13:59:26.380Z,34.24
2019-03-30T14:01:54.252Z,34.21
2019-03-30T14:04:21.883Z,33.90
2019-03-30T14:06:49.438Z,33.90
2019-03-30T14:09:17.224Z,33.39
2019-03-30T14:11:44.739Z,33.29
2019-03-30T14:14:12.324Z,33.27
2019-03-30T14:16:40.098Z,33.38
2019-03-30T14:19:08.127Z,33.52
2019-03-30T14:21:37.630Z,33.59
2019-03-30T14:24:10.867Z,33.58
2019-03-30T14:26:38.449Z,33.45
2019-03-30T14:29:09.319Z,33.28
2019-03-30T14:31:39.298Z,32.79
2019-03-30T14:34:06.921Z,32.79
2019-03-30T14:36:34.568Z,32.36
2019-03-30T14:39:02.451Z,32.26
2019-03-30T14:41:31.293Z,32.40
2019-03-30T14:43:58.812Z,32.40
2019-03-30T14:46:26.703Z,31.89
2019-03-30T14:48:54.217Z,31.80
2019-03-30T14:51:21.717Z,31.58
2019-03-30T14:53:49.573Z,31.34
2019-03-30T14:56:17.110Z,31.32
2019-03-30T14:58:44.749Z,31.20
2019-03-30T15:01:12.722Z,31.27
2019-03-30T15:03:40.337Z,31.00
2019-03-30T15:06:12.128Z,31.00
2019-03-30T15:08:39.902Z,30.98
2019-03-30T15:11:07.431Z,31.13
2019-03-30T15:13:34.937Z,31.13
2019-03-30T15:16:06.944Z,31.19
2019-03-30T15:18:46.128Z,31.39
2019-03-30T15:21:13.893Z,31.44
2019-03-30T15:23:43.582Z,31.12
2019-03-30T15:26:11.256Z,30.90
2019-03-30T15:28:38.774Z,30.54
2019-03-30T15:31:06.656Z,30.20
2019-03-30T15:33:37.010Z,29.80
2019-03-30T15:36:04.927Z,29.43
2019-03-30T15:38:32.487Z,29.41
2019-03-30T15:41:00.328Z,29.54
2019-03-30T15:43:37.973Z,29.72
2019-03-30T15:45:57.853Z,29.75
2019-03-30T15:48:28.166Z,29.47
2019-03-30T15:50:54.880Z,29.25
2019-03-30T15:53:22.414Z,28.91
2019-03-30T15:55:53.003Z,28.58
2019-03-30T15:58:20.556Z,28.60
2019-03-30T16:00:51.104Z,28.60
2019-03-30T16:03:18.829Z,28.89
2019-03-30T16:05:46.422Z,29.20
2019-03-30T16:08:14.080Z,29.61
2019-03-30T16:10:41.924Z,30.60
2019-03-30T16:13:16.591Z,32.68
2019-03-30T16:15:44.667Z,32.68
2019-03-30T16:18:19.641Z,33.38
2019-03-30T16:20:47.196Z,34.11
2019-03-30T16:23:14.781Z,34.77
2019-03-30T16:25:45.099Z,35.43
2019-03-30T16:28:14.449Z,35.43
2019-03-30T16:30:42.057Z,36.03
2019-03-30T16:33:09.883Z,36.32
2019-03-30T16:35:37.467Z,36.54
2019-03-30T16:38:05.042Z,36.73
2019-03-30T16:40:32.833Z,36.84
2019-03-30T16:43:08.530Z,36.93
2019-03-30T16:45:32.175Z,37.01
2019-03-30T16:47:59.988Z,37.12
2019-03-30T16:50:32.265Z,37.24
2019-03-30T16:53:01.979Z,37.37
2019-03-30T16:55:32.568Z,37.48
2019-03-30T16:58:00.184Z,37.56
2019-03-30T17:00:35.076Z,37.68
2019-03-30T17:03:06.041Z,37.81
2019-03-30T17:05:33.923Z,37.96
2019-03-30T17:08:01.600Z,38.06
2019-03-30T17:10:29.509Z,38.15
2019-03-30T17:12:57.039Z,38.31
2019-03-30T17:15:28.164Z,38.46
2019-03-30T17:17:59.166Z,38.62
2019-03-30T17:20:34.044Z,38.76
2019-03-30T17:23:01.602Z,38.90
2019-03-30T17:25:32.559Z,39.01
2019-03-30T17:28:10.716Z,39.11
2019-03-30T17:30:38.601Z,39.22
2019-03-30T17:33:06.236Z,39.33
2019-03-30T17:35:33.928Z,39.43
2019-03-30T17:38:01.378Z,39.59
2019-03-30T17:40:28.892Z,39.95
2019-03-30T17:42:56.642Z,39.95
2019-03-30T17:45:27.053Z,39.96
2019-03-30T17:47:54.611Z,40.10
2019-03-30T17:50:22.484Z,40.23
2019-03-30T17:52:50.196Z,40.40
2019-03-30T17:55:17.670Z,40.57
2019-03-30T17:57:45.733Z,40.78
2019-03-30T18:00:18.356Z,40.97
2019-03-30T18:02:48.797Z,41.09
2019-03-30T18:05:16.873Z,41.18
2019-03-30T18:07:44.444Z,41.28
2019-03-30T18:10:12.139Z,41.40
2019-03-30T18:12:40.041Z,41.40
2019-03-30T18:15:07.645Z,41.60
2019-03-30T18:17:35.247Z,41.62
2019-03-30T18:20:04.504Z,41.62
2019-03-30T18:22:35.185Z,41.75
2019-03-30T18:25:05.823Z,41.81
2019-03-30T18:27:36.613Z,41.84
2019-03-30T18:30:07.053Z,41.88
2019-03-30T18:32:39.835Z,41.92
2019-03-30T18:35:07.720Z,41.93
2019-03-30T18:37:35.291Z,42.16
2019-03-30T18:40:02.835Z,42.16
2019-03-30T18:42:30.636Z,42.35
2019-03-30T18:44:59.787Z,42.35
2019-03-30T18:47:27.299Z,42.44
2019-03-30T18:49:55.207Z,42.51
2019-03-30T18:52:22.883Z,42.62
2019-03-30T18:54:50.434Z,42.71
2019-03-30T18:57:18.285Z,42.82
2019-03-30T18:59:50.806Z,43.05
2019-03-30T19:02:19.318Z,43.05
2019-03-30T19:04:47.317Z,43.19
2019-03-30T19:07:17.701Z,43.31
2019-03-30T19:09:44.236Z,43.44
2019-03-30T19:12:12.090Z,43.58
2019-03-30T19:14:39.688Z,43.72
2019-03-30T19:17:07.229Z,43.83
2019-03-30T19:19:35.041Z,43.99
2019-03-30T19:22:02.629Z,44.23
2019-03-30T19:24:31.786Z,44.46
2019-03-30T19:27:00.532Z,44.70
2019-03-30T19:29:28.141Z,44.96
2019-03-30T19:31:55.615Z,44.96
2019-03-30T19:34:23.434Z,45.03
2019-03-30T19:36:53.980Z,45.23
2019-03-30T19:39:21.616Z,45.23
2019-03-30T19:41:50.502Z,45.56
2019-03-30T19:44:18.043Z,45.92
2019-03-30T19:46:49.120Z,46.51
2019-03-30T19:49:16.923Z,46.76
2019-03-30T19:51:44.540Z,47.21
2019-03-30T19:54:12.140Z,47.21
2019-03-30T19:56:40.000Z,47.37
2019-03-30T19:59:11.384Z,47.65
2019-03-30T20:01:40.917Z,48.16
2019-03-30T20:04:08.759Z,48.16
2019-03-30T20:06:37.442Z,48.54
2019-03-30T20:09:07.398Z,48.54
2019-03-30T20:11:35.345Z,48.95
2019-03-30T20:14:03.000Z,49.08
2019-03-30T20:16:35.124Z,48.80
2019-03-30T20:19:11.590Z,49.16
2019-03-30T20:21:32.196Z,49.16
2019-03-30T20:23:59.801Z,49.33
2019-03-30T20:26:28.662Z,49.64
2019-03-30T20:28:56.230Z,49.71
2019-03-30T20:31:23.789Z,49.71
2019-03-30T20:33:51.709Z,50.14
2019-03-30T20:36:19.270Z,50.18
2019-03-30T20:38:49.853Z,50.57
2019-03-30T20:41:17.734Z,50.57
2019-03-30T20:43:45.364Z,50.45
2019-03-30T20:46:18.811Z,50.45
2019-03-30T20:48:46.599Z,50.58
2019-03-30T20:51:14.089Z,50.58
2019-03-30T20:53:41.724Z,50.55
2019-03-30T20:56:10.412Z,50.66
2019-03-30T20:58:43.461Z,50.75
2019-03-30T21:01:11.013Z,50.94
2019-03-30T21:03:38.818Z,50.94
2019-03-30T21:06:06.437Z,50.99
2019-03-30T21:08:33.981Z,51.17
2019-03-30T21:11:04.048Z,51.29
2019-03-30T21:13:31.620Z,51.29
2019-03-30T21:15:59.114Z,51.41
2019-03-30T21:18:27.013Z,51.41
2019-03-30T21:20:54.616Z,52.44
2019-03-30T21:23:22.178Z,52.44
2019-03-30T21:25:59.329Z,51.84
2019-03-30T21:28:26.831Z,51.84
2019-03-30T21:30:54.445Z,51.97
2019-03-30T21:33:22.296Z,51.97
2019-03-30T21:35:58.340Z,52.06
2019-03-30T21:38:27.042Z,52.04
2019-03-30T21:40:54.590Z,52.08
2019-03-30T21:43:22.044Z,52.17
2019-03-30T21:45:50.587Z,52.20
2019-03-30T21:48:18.161Z,52.43
2019-03-30T21:50:45.922Z,52.43
2019-03-30T21:53:15.815Z,52.33
2019-03-30T21:55:45.880Z,52.29
2019-03-30T21:58:13.436Z,52.38
2019-03-30T22:00:41.328Z,52.52
2019-03-30T22:03:08.889Z,52.52
2019-03-30T22:05:36.441Z,52.55
2019-03-30T22:08:04.318Z,52.55
2019-03-30T22:10:34.131Z,52.93
2019-03-30T22:13:01.785Z,52.61
2019-03-30T22:15:29.524Z,53.28
2019-03-30T22:17:57.041Z,53.28
2019-03-30T22:20:24.524Z,52.55
2019-03-30T22:22:52.404Z,52.55
2019-03-30T22:25:19.938Z,52.83
2019-03-30T22:27:49.474Z,52.83
2019-03-30T22:30:24.700Z,52.95
2019-03-30T22:32:46.568Z,53.24
2019-03-30T22:35:15.740Z,53.24
2019-03-30T22:37:43.545Z,53.35
2019-03-30T22:40:11.162Z,53.39
2019-03-30T22:42:38.713Z,53.55
2019-03-30T22:45:06.522Z,53.93
2019-03-30T22:47:35.413Z,54.14
2019-03-30T22:50:08.993Z,54.44
2019-03-30T22:52:37.877Z,54.44
2019-03-30T22:55:05.443Z,54.11
2019-03-30T22:57:34.024Z,53.68
2019-03-30T23:00:01.744Z,53.68
2019-03-30T23:02:29.368Z,53.76
2019-03-30T23:04:58.876Z,53.86
2019-03-30T23:07:26.414Z,53.86
2019-03-30T23:09:53.865Z,53.68
2019-03-30T23:12:21.406Z,54.00
2019-03-30T23:14:49.224Z,54.38
2019-03-30T23:17:16.833Z,54.88
2019-03-30T23:19:44.362Z,55.15
2019-03-30T23:22:15.282Z,55.17
2019-03-30T23:24:42.801Z,55.44
2019-03-30T23:27:13.459Z,55.44
2019-03-30T23:29:41.254Z,55.22
2019-03-30T23:32:08.754Z,55.26
2019-03-30T23:34:36.363Z,55.54
2019-03-30T23:37:04.237Z,55.08
2019-03-30T23:39:34.791Z,55.08
2019-03-30T23:42:04.017Z,54.93
2019-03-30T23:44:34.400Z,54.93
2019-03-30T23:47:02.173Z,55.19
2019-03-30T23:49:29.656Z,55.22
2019-03-30T23:51:57.506Z,55.23
2019-03-30T23:54:25.528Z,55.21
2019-03-30T23:56:53.119Z,55.29
2019-03-30T23:59:23.698Z,55.29
